createdAt,value
2017-08-18T00:02:17.236Z,20.46
2017-08-18T00:04:43.598Z,20.46
2017-08-18T00:07:09.974Z,20.37
2017-08-18T00:09:36.338Z,20.44
2017-08-18T00:12:02.929Z,20.49
2017-08-18T00:14:29.425Z,20.42
2017-08-18T00:16:56.045Z,20.48
2017-08-18T00:19:23.014Z,20.34
2017-08-18T00:21:49.692Z,20.35
2017-08-18T00:24:16.340Z,20.39
2017-08-18T00:26:48.035Z,20.45
2017-08-18T00:29:14.933Z,20.39
2017-08-18T00:31:41.728Z,20.49
2017-08-18T00:34:08.415Z,20.36
2017-08-18T00:36:35.251Z,20.31
2017-08-18T00:39:01.694Z,20.33
2017-08-18T00:41:28.173Z,20.32
2017-08-18T00:43:54.606Z,20.25
2017-08-18T00:46:21.111Z,20.14
2017-08-18T00:48:47.577Z,20.02
2017-08-18T00:51:14.008Z,20.08
2017-08-18T00:53:40.441Z,20.06
2017-08-18T00:56:06.907Z,20.08
2017-08-18T00:58:33.413Z,20.16
2017-08-18T01:00:59.927Z,20.08
2017-08-18T01:03:26.374Z,20.10
2017-08-18T01:05:52.885Z,20.06
2017-08-18T01:08:19.328Z,20.07
2017-08-18T01:10:45.821Z,20.15
2017-08-18T01:13:12.286Z,20.15
2017-08-18T01:15:38.679Z,20.15
2017-08-18T01:18:05.084Z,20.13
2017-08-18T01:20:31.581Z,19.99
2017-08-18T01:22:58.050Z,19.76
2017-08-18T01:25:24.432Z,19.72
2017-08-18T01:27:50.863Z,19.50
2017-08-18T01:30:17.296Z,19.50
2017-08-18T01:32:43.730Z,19.48
2017-08-18T01:35:10.159Z,19.43
2017-08-18T01:37:36.605Z,19.45
2017-08-18T01:40:03.040Z,19.44
2017-08-18T01:42:29.476Z,19.56
2017-08-18T01:44:55.890Z,19.51
2017-08-18T01:47:22.333Z,19.55
2017-08-18T01:49:48.765Z,19.70
2017-08-18T01:52:15.189Z,19.66
2017-08-18T01:54:41.617Z,19.74
2017-08-18T01:57:08.021Z,19.56
2017-08-18T01:59:34.426Z,19.44
2017-08-18T02:02:00.809Z,19.20
2017-08-18T02:04:27.212Z,19.12
2017-08-18T02:06:53.620Z,19.12
2017-08-18T02:09:19.998Z,19.01
2017-08-18T02:11:46.397Z,19.01
2017-08-18T02:14:12.782Z,19.14
2017-08-18T02:16:39.211Z,19.14
2017-08-18T02:19:05.551Z,19.37
2017-08-18T02:21:31.898Z,19.42
2017-08-18T02:23:58.290Z,19.49
2017-08-18T02:26:24.683Z,19.22
2017-08-18T02:28:51.093Z,19.25
2017-08-18T02:31:17.498Z,19.41
2017-08-18T02:33:43.918Z,19.50
2017-08-18T02:36:10.327Z,19.40
2017-08-18T02:38:36.761Z,19.50
2017-08-18T02:41:03.163Z,19.29
2017-08-18T02:43:29.598Z,19.15
2017-08-18T02:45:56.027Z,18.97
2017-08-18T02:48:22.452Z,19.02
2017-08-18T02:50:48.845Z,18.93
2017-08-18T02:53:15.320Z,18.90
2017-08-18T02:55:41.754Z,19.11
2017-08-18T02:58:08.136Z,19.11
2017-08-18T03:00:34.607Z,19.17
2017-08-18T03:03:01.019Z,19.09
2017-08-18T03:05:27.468Z,19.08
2017-08-18T03:07:53.900Z,19.18
2017-08-18T03:10:20.347Z,19.24
2017-08-18T03:12:46.751Z,19.45
2017-08-18T03:15:13.166Z,19.58
2017-08-18T03:17:39.595Z,19.54
2017-08-18T03:20:06.037Z,19.43
2017-08-18T03:22:32.429Z,19.39
2017-08-18T03:24:58.814Z,19.51
2017-08-18T03:27:25.321Z,19.56
2017-08-18T03:29:52.959Z,19.63
2017-08-18T03:32:19.439Z,19.49
2017-08-18T03:34:45.853Z,19.43
2017-08-18T03:37:12.305Z,19.31
2017-08-18T03:39:39.013Z,19.29
2017-08-18T03:42:05.492Z,19.25
2017-08-18T03:44:32.022Z,19.35
2017-08-18T03:46:58.494Z,19.47
2017-08-18T03:49:25.552Z,19.34
2017-08-18T03:51:52.071Z,19.48
2017-08-18T03:54:19.364Z,19.48
2017-08-18T03:56:45.827Z,19.41
2017-08-18T03:59:12.307Z,19.31
2017-08-18T04:01:38.863Z,19.33
2017-08-18T04:04:05.376Z,19.40
2017-08-18T04:06:33.211Z,19.54
2017-08-18T04:08:59.792Z,19.58
2017-08-18T04:11:26.184Z,19.58
2017-08-18T04:13:52.584Z,19.58
2017-08-18T04:16:18.959Z,19.47
2017-08-18T04:18:45.380Z,19.50
2017-08-18T04:21:11.814Z,19.56
2017-08-18T04:23:38.337Z,19.56
2017-08-18T04:26:04.782Z,19.53
2017-08-18T04:28:31.179Z,19.35
2017-08-18T04:30:57.628Z,19.45
2017-08-18T04:33:24.113Z,19.55
2017-08-18T04:35:50.621Z,19.61
2017-08-18T04:38:17.444Z,19.65
2017-08-18T04:40:43.875Z,19.57
2017-08-18T04:43:10.244Z,19.59
2017-08-18T04:45:36.638Z,19.63
2017-08-18T04:48:03.052Z,19.64
2017-08-18T04:50:29.491Z,19.48
2017-08-18T04:52:55.890Z,19.40
2017-08-18T04:55:22.269Z,19.53
2017-08-18T04:57:48.689Z,19.52
2017-08-18T05:00:15.122Z,19.51
2017-08-18T05:02:41.505Z,19.52
2017-08-18T05:05:07.934Z,19.44
2017-08-18T05:07:34.299Z,19.51
2017-08-18T05:10:00.661Z,19.55
2017-08-18T05:12:27.033Z,19.54
2017-08-18T05:14:53.395Z,19.54
2017-08-18T05:17:19.769Z,19.34
2017-08-18T05:19:46.189Z,19.34
2017-08-18T05:22:12.608Z,19.37
2017-08-18T05:24:39.015Z,19.46
2017-08-18T05:27:05.399Z,19.53
2017-08-18T05:29:31.949Z,19.59
2017-08-18T05:31:58.379Z,19.40
2017-08-18T05:34:24.722Z,19.30
2017-08-18T05:36:51.123Z,19.22
2017-08-18T05:39:17.501Z,19.33
2017-08-18T05:41:43.900Z,19.33
2017-08-18T05:45:14.620Z,19.37
2017-08-18T05:47:40.972Z,19.45
2017-08-18T05:50:07.353Z,19.32
2017-08-18T05:52:34.085Z,19.24
2017-08-18T05:55:00.473Z,19.25
2017-08-18T05:57:26.839Z,19.19
2017-08-18T05:59:53.261Z,19.35
2017-08-18T06:02:19.636Z,19.30
2017-08-18T06:04:46.504Z,19.13
2017-08-18T06:07:16.151Z,19.19
2017-08-18T06:09:42.528Z,19.14
2017-08-18T06:12:08.883Z,19.18
2017-08-18T06:14:35.273Z,19.42
2017-08-18T06:17:01.631Z,19.52
2017-08-18T06:19:28.017Z,19.58
2017-08-18T06:21:54.409Z,19.57
2017-08-18T06:24:20.772Z,19.32
2017-08-18T06:26:47.141Z,19.37
2017-08-18T06:29:13.527Z,19.45
2017-08-18T06:31:39.907Z,19.47
2017-08-18T06:34:06.350Z,19.51
2017-08-18T06:36:36.038Z,19.38
2017-08-18T06:39:02.512Z,19.35
2017-08-18T06:41:28.904Z,19.33
2017-08-18T06:43:55.778Z,19.34
2017-08-18T06:46:22.183Z,19.37
2017-08-18T06:48:48.627Z,19.39
2017-08-18T06:51:14.993Z,19.43
2017-08-18T06:53:41.435Z,19.50
2017-08-18T06:56:07.844Z,19.54
2017-08-18T06:58:34.250Z,19.66
2017-08-18T07:01:00.658Z,19.68
2017-08-18T07:03:27.028Z,19.60
2017-08-18T07:05:53.391Z,19.59
2017-08-18T07:08:19.789Z,19.59
2017-08-18T07:10:47.127Z,19.66
2017-08-18T07:13:13.511Z,19.62
2017-08-18T07:15:39.922Z,19.67
2017-08-18T07:18:06.373Z,19.70
2017-08-18T07:20:32.729Z,19.76
2017-08-18T07:22:59.149Z,19.80
2017-08-18T07:25:25.517Z,19.70
2017-08-18T07:27:51.998Z,19.67
2017-08-18T07:30:18.376Z,19.64
2017-08-18T07:32:45.967Z,19.69
2017-08-18T07:35:12.725Z,19.71
2017-08-18T07:37:39.359Z,19.81
2017-08-18T07:40:05.760Z,19.75
2017-08-18T07:42:32.219Z,19.51
2017-08-18T07:44:58.624Z,19.69
2017-08-18T07:47:25.085Z,19.77
2017-08-18T07:49:52.131Z,19.81
2017-08-18T07:52:18.529Z,19.86
2017-08-18T07:54:44.908Z,19.58
2017-08-18T07:57:15.039Z,19.66
2017-08-18T07:59:46.422Z,19.80
2017-08-18T08:02:16.713Z,19.71
2017-08-18T08:04:47.048Z,19.75
2017-08-18T08:07:20.232Z,19.77
2017-08-18T08:09:51.192Z,19.91
2017-08-18T08:12:21.842Z,19.99
2017-08-18T08:14:52.374Z,19.91
2017-08-18T08:17:22.579Z,19.99
2017-08-18T08:36:08.215Z,20.05
2017-08-18T08:38:38.423Z,20.13
2017-08-18T08:41:09.048Z,20.05
2017-08-18T08:43:40.594Z,20.21
2017-08-18T08:46:11.096Z,20.10
2017-08-18T09:01:37.817Z,20.53
2017-08-18T09:04:04.296Z,20.56
2017-08-18T09:06:31.262Z,20.67
2017-08-18T09:08:57.675Z,20.47
2017-08-18T09:11:24.070Z,20.48
2017-08-18T09:13:50.495Z,20.36
2017-08-18T09:16:16.956Z,20.26
2017-08-18T09:18:43.352Z,20.22
2017-08-18T09:21:09.760Z,20.46
2017-08-18T09:23:36.156Z,20.68
2017-08-18T09:26:03.083Z,20.83
2017-08-18T09:28:29.529Z,20.87
2017-08-18T09:30:55.900Z,20.91
2017-08-18T09:33:22.286Z,20.96
2017-08-18T09:35:48.874Z,20.98
2017-08-18T09:38:15.299Z,21.03
2017-08-18T09:40:41.682Z,21.12
2017-08-18T09:43:08.116Z,21.23
2017-08-18T09:45:34.554Z,21.25
2017-08-18T09:48:12.966Z,21.19
2017-08-18T09:50:51.458Z,21.20
2017-08-18T09:53:29.921Z,21.20
2017-08-18T09:56:08.888Z,21.23
2017-08-18T09:58:47.514Z,21.27
2017-08-18T10:01:13.890Z,21.32
2017-08-18T10:03:40.283Z,21.39
2017-08-18T10:06:06.695Z,21.41
2017-08-18T10:08:33.332Z,21.44
2017-08-18T10:10:59.752Z,21.42
2017-08-18T10:13:26.343Z,21.46
2017-08-18T10:15:52.754Z,21.45
2017-08-18T10:18:19.205Z,21.51
2017-08-18T10:20:45.734Z,21.46
2017-08-18T10:23:12.539Z,21.46
2017-08-18T10:25:38.933Z,21.37
2017-08-18T10:28:05.541Z,21.22
2017-08-18T10:30:31.941Z,21.17
2017-08-18T10:33:00.149Z,21.05
2017-08-18T10:35:26.668Z,21.00
2017-08-18T10:37:53.115Z,21.15
2017-08-18T10:40:19.504Z,21.28
2017-08-18T10:42:45.929Z,21.27
2017-08-18T10:45:12.992Z,21.32
2017-08-18T10:47:39.433Z,21.31
2017-08-18T10:50:06.161Z,21.29
2017-08-18T10:52:32.569Z,21.36
2017-08-18T10:54:59.154Z,21.28
2017-08-18T10:57:25.620Z,21.21
2017-08-18T10:59:52.025Z,21.07
2017-08-18T11:02:18.944Z,21.07
2017-08-18T11:04:45.817Z,21.07
2017-08-18T11:07:12.211Z,21.06
2017-08-18T11:09:39.425Z,21.13
2017-08-18T11:12:05.923Z,21.10
2017-08-18T11:14:32.315Z,21.23
2017-08-18T11:16:58.696Z,21.23
2017-08-18T11:19:25.088Z,21.33
2017-08-18T11:21:51.487Z,21.39
2017-08-18T11:24:17.850Z,21.43
2017-08-18T11:26:44.297Z,21.44
2017-08-18T11:29:10.714Z,21.47
2017-08-18T11:31:37.098Z,21.42
2017-08-18T11:34:03.568Z,21.38
2017-08-18T11:36:29.963Z,21.37
2017-08-18T11:38:56.355Z,21.36
2017-08-18T11:41:22.759Z,21.38
2017-08-18T11:43:49.191Z,21.33
2017-08-18T11:46:15.579Z,21.38
2017-08-18T11:48:41.974Z,21.36
2017-08-18T11:51:08.371Z,21.34
2017-08-18T11:53:34.759Z,21.36
2017-08-18T11:56:01.171Z,21.36
2017-08-18T11:58:27.577Z,21.41
2017-08-18T12:00:53.979Z,21.36
2017-08-18T12:03:20.797Z,21.37
2017-08-18T12:05:47.457Z,21.39
2017-08-18T12:08:14.142Z,21.36
2017-08-18T12:10:40.558Z,21.35
2017-08-18T12:13:07.516Z,21.40
2017-08-18T12:15:34.006Z,21.43
2017-08-18T12:18:00.691Z,21.44
2017-08-18T12:20:27.317Z,21.46
2017-08-18T12:22:54.014Z,21.47
2017-08-18T12:25:20.516Z,21.48
2017-08-18T12:27:47.269Z,21.47
2017-08-18T12:30:13.690Z,21.44
2017-08-18T12:32:40.090Z,21.36
2017-08-18T12:35:06.517Z,21.33
2017-08-18T12:37:34.716Z,21.30
2017-08-18T12:42:48.466Z,21.23
2017-08-18T12:45:14.937Z,21.10
2017-08-18T12:47:41.324Z,21.10
2017-08-18T12:50:07.769Z,21.09
2017-08-18T12:52:34.206Z,21.09
2017-08-18T12:55:00.611Z,21.13
2017-08-18T12:57:26.978Z,21.12
2017-08-18T12:59:53.356Z,21.14
2017-08-18T13:02:19.851Z,21.17
2017-08-18T13:04:46.263Z,21.25
2017-08-18T13:07:12.681Z,21.28
2017-08-18T13:09:39.059Z,21.32
2017-08-18T13:12:05.436Z,21.41
2017-08-18T13:14:31.814Z,21.40
2017-08-18T13:16:58.244Z,21.40
2017-08-18T13:19:24.992Z,21.43
2017-08-18T13:21:51.388Z,21.48
2017-08-18T13:24:17.783Z,21.47
2017-08-18T13:26:44.162Z,21.50
2017-08-18T13:29:12.126Z,21.55
2017-08-18T13:31:38.568Z,21.52
2017-08-18T13:34:04.931Z,21.49
2017-08-18T13:36:31.328Z,21.50
2017-08-18T13:38:57.719Z,21.48
2017-08-18T13:41:24.086Z,21.51
2017-08-18T13:43:50.438Z,21.47
2017-08-18T13:46:16.843Z,21.49
2017-08-18T13:48:43.243Z,21.49
2017-08-18T13:51:09.615Z,21.46
2017-08-18T13:53:35.999Z,21.43
2017-08-18T13:56:02.391Z,21.38
2017-08-18T13:58:28.760Z,21.39
2017-08-18T14:00:55.154Z,21.41
2017-08-18T14:03:21.609Z,21.38
2017-08-18T14:05:47.980Z,21.41
2017-08-18T14:08:14.342Z,21.44
2017-08-18T14:10:40.791Z,21.43
2017-08-18T14:13:07.174Z,21.41
2017-08-18T14:15:33.535Z,21.41
2017-08-18T14:17:59.883Z,21.36
2017-08-18T14:20:26.284Z,21.34
2017-08-18T14:22:52.721Z,21.28
2017-08-18T14:38:49.971Z,21.19
2017-08-18T14:41:16.348Z,21.18
2017-08-18T14:43:42.731Z,21.10
2017-08-18T14:46:09.129Z,21.12
2017-08-18T14:48:35.495Z,21.07
2017-08-18T14:51:01.897Z,21.09
2017-08-18T14:53:28.284Z,21.05
2017-08-18T14:55:54.685Z,21.05
2017-08-18T14:58:21.155Z,21.00
2017-08-18T15:00:47.600Z,21.02
2017-08-18T15:03:14.024Z,20.95
2017-08-18T15:05:40.390Z,20.93
2017-08-18T15:08:06.789Z,20.91
2017-08-18T15:10:33.183Z,20.86
2017-08-18T15:12:59.574Z,20.86
2017-08-18T15:15:25.937Z,20.83
2017-08-18T15:17:52.318Z,20.80
2017-08-18T15:20:18.718Z,20.78
2017-08-18T15:22:45.121Z,20.59
2017-08-18T15:25:11.550Z,20.38
2017-08-18T15:27:39.230Z,20.12
2017-08-18T15:30:06.319Z,20.13
2017-08-18T15:32:33.181Z,20.22
2017-08-18T15:34:59.656Z,20.18
2017-08-18T15:37:26.059Z,20.10
2017-08-18T15:39:52.550Z,20.11
2017-08-18T15:42:18.944Z,20.11
2017-08-18T15:44:45.351Z,20.18
2017-08-18T15:47:11.909Z,20.18
2017-08-18T15:49:38.359Z,20.18
2017-08-18T15:52:04.708Z,20.06
2017-08-18T15:54:31.086Z,20.19
2017-08-18T15:56:57.938Z,20.18
2017-08-18T15:59:24.753Z,20.25
2017-08-18T16:01:51.668Z,20.28
2017-08-18T16:04:18.427Z,20.29
2017-08-18T16:06:44.897Z,20.31
2017-08-18T16:09:11.317Z,20.25
2017-08-18T16:11:37.723Z,20.26
2017-08-18T16:14:04.121Z,20.29
2017-08-18T16:16:30.601Z,20.31
2017-08-18T16:18:57.000Z,20.12
2017-08-18T16:21:23.778Z,20.04
2017-08-18T16:23:50.190Z,20.10
2017-08-18T16:26:16.592Z,20.07
2017-08-18T16:28:43.533Z,20.07
2017-08-18T16:31:09.973Z,20.02
2017-08-18T16:33:36.364Z,19.99
2017-08-18T16:36:03.027Z,20.09
2017-08-18T16:38:29.426Z,20.10
2017-08-18T16:40:55.831Z,20.12
2017-08-18T16:43:22.241Z,20.11
2017-08-18T16:45:48.969Z,20.10
2017-08-18T16:48:15.973Z,20.15
2017-08-18T16:50:42.681Z,20.12
2017-08-18T16:53:09.301Z,20.15
2017-08-18T16:55:35.732Z,20.17
2017-08-18T16:58:02.325Z,20.19
2017-08-18T17:00:28.739Z,20.22
2017-08-18T17:02:55.118Z,20.25
2017-08-18T17:05:21.475Z,20.26
2017-08-18T17:07:47.879Z,20.28
2017-08-18T17:10:14.301Z,20.27
2017-08-18T17:12:40.682Z,20.24
2017-08-18T17:15:07.047Z,20.29
2017-08-18T17:17:33.440Z,20.23
2017-08-18T17:19:59.816Z,20.24
2017-08-18T17:22:26.189Z,20.19
2017-08-18T17:24:53.854Z,20.17
2017-08-18T17:27:20.291Z,20.20
2017-08-18T17:29:46.663Z,20.21
2017-08-18T17:32:13.036Z,20.11
2017-08-18T17:34:39.412Z,20.11
2017-08-18T17:37:05.793Z,20.14
2017-08-18T17:39:32.146Z,20.22
2017-08-18T17:41:58.698Z,20.17
2017-08-18T17:44:25.054Z,20.15
2017-08-18T17:46:51.424Z,20.15
2017-08-18T17:49:17.795Z,20.13
2017-08-18T17:51:44.166Z,20.19
2017-08-18T17:54:10.517Z,20.06
2017-08-18T17:56:36.912Z,20.00
2017-08-18T17:59:03.286Z,19.95
2017-08-18T18:01:29.664Z,19.96
2017-08-18T18:03:56.062Z,19.95
2017-08-18T18:06:22.545Z,19.88
2017-08-18T18:08:48.977Z,19.88
2017-08-18T18:11:16.172Z,19.93
2017-08-18T18:13:42.603Z,19.99
2017-08-18T18:16:08.978Z,19.90
2017-08-18T18:18:35.386Z,19.92
2017-08-18T18:21:01.773Z,19.82
2017-08-18T18:23:28.144Z,19.88
2017-08-18T18:25:54.549Z,19.91
2017-08-18T18:28:20.909Z,19.92
2017-08-18T18:30:48.020Z,19.90
2017-08-18T18:33:14.489Z,19.84
2017-08-18T18:35:40.844Z,19.75
2017-08-18T18:38:07.228Z,19.64
2017-08-18T18:40:33.656Z,19.74
2017-08-18T18:43:00.063Z,19.82
2017-08-18T18:45:26.459Z,19.59
2017-08-18T18:47:52.953Z,19.62
2017-08-18T18:50:20.973Z,19.71
2017-08-18T18:52:47.405Z,19.74
2017-08-18T18:55:13.811Z,19.70
2017-08-18T18:57:40.241Z,19.73
2017-08-18T19:00:06.630Z,19.64
2017-08-18T19:02:33.050Z,19.64
2017-08-18T19:04:59.429Z,19.53
2017-08-18T19:07:25.882Z,19.60
2017-08-18T19:09:52.297Z,19.53
2017-08-18T19:12:18.735Z,19.58
2017-08-18T19:14:45.122Z,19.61
2017-08-18T19:17:11.531Z,19.60
2017-08-18T19:19:37.928Z,19.64
2017-08-18T19:22:04.920Z,19.64
2017-08-18T19:24:31.335Z,19.66
2017-08-18T19:26:57.727Z,19.57
2017-08-18T19:29:24.134Z,19.49
2017-08-18T19:31:50.551Z,19.51
2017-08-18T19:34:16.926Z,19.50
2017-08-18T19:36:43.328Z,19.37
2017-08-18T19:39:09.708Z,19.38
2017-08-18T19:41:36.163Z,19.37
2017-08-18T19:44:02.718Z,19.33
2017-08-18T19:46:29.084Z,19.35
2017-08-18T19:48:56.790Z,19.31
2017-08-18T19:51:24.822Z,19.32
2017-08-18T19:53:51.364Z,19.27
2017-08-18T19:56:17.738Z,19.22
2017-08-18T19:58:44.116Z,19.16
2017-08-18T20:01:10.497Z,19.20
2017-08-18T20:03:36.862Z,19.11
2017-08-18T20:06:03.216Z,19.05
2017-08-18T20:08:29.880Z,19.02
2017-08-18T20:10:56.229Z,18.99
2017-08-18T20:13:22.615Z,18.91
2017-08-18T20:15:49.035Z,18.99
2017-08-18T20:18:15.415Z,19.04
2017-08-18T20:20:41.805Z,18.96
2017-08-18T20:23:08.180Z,19.03
2017-08-18T20:25:34.537Z,19.07
2017-08-18T20:28:00.926Z,19.09
2017-08-18T20:30:27.290Z,19.07
2017-08-18T20:32:54.007Z,18.92
2017-08-18T20:35:20.361Z,18.66
2017-08-18T20:37:46.738Z,18.55
2017-08-18T20:40:13.110Z,18.43
2017-08-18T20:42:39.489Z,18.47
2017-08-18T20:45:05.886Z,18.55
2017-08-18T20:47:32.276Z,18.53
2017-08-18T20:49:58.627Z,18.47
2017-08-18T20:52:24.972Z,18.56
2017-08-18T20:54:51.382Z,18.54
2017-08-18T20:57:17.747Z,18.51
2017-08-18T20:59:44.114Z,18.72
2017-08-18T21:02:10.514Z,18.78
2017-08-18T21:04:36.931Z,18.70
2017-08-18T21:07:03.301Z,18.61
2017-08-18T21:09:29.700Z,18.66
2017-08-18T21:11:56.074Z,18.61
2017-08-18T21:14:22.464Z,18.69
2017-08-18T21:16:48.854Z,18.68
2017-08-18T21:19:15.229Z,18.67
2017-08-18T21:21:41.655Z,18.54
2017-08-18T21:24:08.017Z,18.59
2017-08-18T21:26:34.374Z,18.57
2017-08-18T21:29:00.760Z,18.46
2017-08-18T21:31:27.876Z,18.54
2017-08-18T21:33:54.320Z,18.49
2017-08-18T21:36:20.679Z,18.39
2017-08-18T21:38:47.951Z,18.35
2017-08-18T21:41:14.587Z,18.29
2017-08-18T21:43:41.088Z,18.25
2017-08-18T21:46:07.803Z,18.25
2017-08-18T21:48:34.211Z,18.32
2017-08-18T21:51:00.821Z,18.31
2017-08-18T21:53:27.237Z,18.27
2017-08-18T21:55:54.052Z,18.12
2017-08-18T21:58:20.445Z,18.01
2017-08-18T22:00:47.158Z,17.95
2017-08-18T22:03:13.615Z,17.83
2017-08-18T22:05:40.048Z,17.76
2017-08-18T22:08:06.424Z,17.70
2017-08-18T22:10:32.784Z,17.68
2017-08-18T22:12:59.149Z,17.79
2017-08-18T22:15:25.568Z,17.64
2017-08-18T22:17:52.003Z,17.57
2017-08-18T22:20:18.403Z,17.50
2017-08-18T22:22:44.750Z,17.64
2017-08-18T22:25:11.230Z,17.65
2017-08-18T22:27:37.623Z,17.36
2017-08-18T22:30:04.044Z,17.41
2017-08-18T22:32:30.387Z,17.59
2017-08-18T22:34:56.754Z,17.46
2017-08-18T22:37:23.909Z,17.40
2017-08-18T22:39:51.012Z,17.44
2017-08-18T22:42:18.046Z,17.35
2017-08-18T22:44:44.694Z,17.41
2017-08-18T22:47:11.078Z,17.23
2017-08-18T22:49:37.440Z,17.15
2017-08-18T22:52:04.539Z,17.32
2017-08-18T22:54:31.005Z,17.16
2017-08-18T22:56:58.522Z,17.19
2017-08-18T22:59:24.903Z,17.22
2017-08-18T23:01:51.282Z,17.13
2017-08-18T23:04:17.695Z,17.05
2017-08-18T23:06:44.099Z,16.96
2017-08-18T23:09:14.902Z,16.98
2017-08-18T23:11:41.456Z,16.90
2017-08-18T23:14:07.833Z,17.15
2017-08-18T23:16:34.218Z,17.06
2017-08-18T23:19:01.396Z,16.87
2017-08-18T23:21:29.631Z,17.01
2017-08-18T23:23:56.733Z,16.95
2017-08-18T23:26:23.135Z,17.11
2017-08-18T23:28:50.350Z,16.91
2017-08-18T23:31:16.801Z,17.01
2017-08-18T23:33:43.448Z,16.77
2017-08-18T23:36:09.996Z,17.04
2017-08-18T23:38:36.395Z,16.93
2017-08-18T23:41:02.756Z,16.88
2017-08-18T23:43:29.166Z,16.93
2017-08-18T23:45:55.568Z,16.99
2017-08-18T23:48:21.952Z,16.99
2017-08-18T23:50:48.427Z,16.77
2017-08-18T23:53:14.809Z,16.86
2017-08-18T23:55:44.210Z,16.84
2017-08-18T23:58:11.240Z,16.99
